sensor_id;sensor_type;location;lat;lon;timestamp;temperature;humidity
30328;DHT22;17133;52.418;13.398;2022-09-24T00:01:19;10.40;99.90
30328;DHT22;17133;52.418;13.398;2022-09-24T00:03:50;10.40;99.90
30328;DHT22;17133;52.418;13.398;2022-09-24T00:06:17;10.30;99.90
30328;DHT22;17133;52.418;13.398;2022-09-24T00:08:44;10.20;99.90
30328;DHT22;17133;52.418;13.398;2022-09-24T00:11:11;10.30;99.90
30328;DHT22;17133;52.418;13.398;2022-09-24T00:13:38;10.30;99.90
30328;DHT22;17133;52.418;13.398;2022-09-24T00:16:07;10.30;99.90
30328;DHT22;17133;52.418;13.398;2022-09-24T00:18:33;10.20;99.90
30328;DHT22;17133;52.418;13.398;2022-09-24T00:21:00;10.20;99.90
30328;DHT22;17133;52.418;13.398;2022-09-24T00:23:26;10.20;99.90
30328;DHT22;17133;52.418;13.398;2022-09-24T00:25:52;10.10;99.90
30328;DHT22;17133;52.418;13.398;2022-09-24T00:28:36;10.10;99.90
30328;DHT22;17133;52.418;13.398;2022-09-24T00:31:06;10.10;99.90
30328;DHT22;17133;52.418;13.398;2022-09-24T00:33:33;10.10;99.90
30328;DHT22;17133;52.418;13.398;2022-09-24T00:36:01;10.00;99.90
30328;DHT22;17133;52.418;13.398;2022-09-24T00:38:28;10.00;99.90
30328;DHT22;17133;52.418;13.398;2022-09-24T00:40:54;10.00;99.90
30328;DHT22;17133;52.418;13.398;2022-09-24T00:43:25;10.00;99.90
30328;DHT22;17133;52.418;13.398;2022-09-24T00:45:58;10.00;99.90
30328;DHT22;17133;52.418;13.398;2022-09-24T00:48:26;10.00;99.90
30328;DHT22;17133;52.418;13.398;2022-09-24T00:50:52;10.00;99.90
30328;DHT22;17133;52.418;13.398;2022-09-24T00:53:20;10.00;99.90
30328;DHT22;17133;52.418;13.398;2022-09-24T00:55:48;9.90;99.90
30328;DHT22;17133;52.418;13.398;2022-09-24T00:58:18;9.90;99.90
30328;DHT22;17133;52.418;13.398;2022-09-24T01:00:44;9.90;99.90
30328;DHT22;17133;52.418;13.398;2022-09-24T01:03:16;9.90;99.90
30328;DHT22;17133;52.418;13.398;2022-09-24T01:05:43;9.90;99.90
30328;DHT22;17133;52.418;13.398;2022-09-24T01:08:11;9.90;99.90
30328;DHT22;17133;52.418;13.398;2022-09-24T01:13:57;9.80;99.90
30328;DHT22;17133;52.418;13.398;2022-09-24T01:22:01;9.80;99.90
30328;DHT22;17133;52.418;13.398;2022-09-24T01:25:12;9.80;99.90
30328;DHT22;17133;52.418;13.398;2022-09-24T01:27:48;9.80;99.90
30328;DHT22;17133;52.418;13.398;2022-09-24T01:30:21;9.80;99.90
30328;DHT22;17133;52.418;13.398;2022-09-24T01:33:02;9.80;99.90
30328;DHT22;17133;52.418;13.398;2022-09-24T01:35:44;9.80;99.90
30328;DHT22;17133;52.418;13.398;2022-09-24T01:38:22;9.80;99.90
30328;DHT22;17133;52.418;13.398;2022-09-24T01:40:50;9.80;99.90
30328;DHT22;17133;52.418;13.398;2022-09-24T01:43:19;9.80;99.90
30328;DHT22;17133;52.418;13.398;2022-09-24T01:45:46;9.80;99.90
30328;DHT22;17133;52.418;13.398;2022-09-24T01:48:12;9.90;99.90
30328;DHT22;17133;52.418;13.398;2022-09-24T01:51:08;9.90;99.90
30328;DHT22;17133;52.418;13.398;2022-09-24T01:53:51;9.90;99.90
30328;DHT22;17133;52.418;13.398;2022-09-24T01:56:41;9.90;99.90
30328;DHT22;17133;52.418;13.398;2022-09-24T01:59:29;9.90;99.90
30328;DHT22;17133;52.418;13.398;2022-09-24T02:02:06;10.00;99.90
30328;DHT22;17133;52.418;13.398;2022-09-24T02:04:38;10.00;99.90
30328;DHT22;17133;52.418;13.398;2022-09-24T02:07:11;10.00;99.90
30328;DHT22;17133;52.418;13.398;2022-09-24T02:09:41;10.00;99.90
30328;DHT22;17133;52.418;13.398;2022-09-24T02:12:36;10.00;99.90
30328;DHT22;17133;52.418;13.398;2022-09-24T02:15:09;10.00;99.90
30328;DHT22;17133;52.418;13.398;2022-09-24T02:17:37;10.00;99.90
30328;DHT22;17133;52.418;13.398;2022-09-24T02:20:08;10.10;99.90
30328;DHT22;17133;52.418;13.398;2022-09-24T02:22:37;10.10;99.90
30328;DHT22;17133;52.418;13.398;2022-09-24T02:25:05;10.10;99.90
30328;DHT22;17133;52.418;13.398;2022-09-24T02:27:33;10.10;99.90
30328;DHT22;17133;52.418;13.398;2022-09-24T02:29:59;10.20;99.90
30328;DHT22;17133;52.418;13.398;2022-09-24T02:32:28;10.10;99.90
30328;DHT22;17133;52.418;13.398;2022-09-24T02:34:57;10.20;99.90
30328;DHT22;17133;52.418;13.398;2022-09-24T02:37:27;10.10;99.90
30328;DHT22;17133;52.418;13.398;2022-09-24T02:39:53;10.20;99.90
30328;DHT22;17133;52.418;13.398;2022-09-24T02:42:19;10.20;99.90
30328;DHT22;17133;52.418;13.398;2022-09-24T02:44:46;10.20;99.90
30328;DHT22;17133;52.418;13.398;2022-09-24T02:47:12;10.20;99.90
30328;DHT22;17133;52.418;13.398;2022-09-24T02:49:38;10.30;99.90
30328;DHT22;17133;52.418;13.398;2022-09-24T02:52:04;10.20;99.90
30328;DHT22;17133;52.418;13.398;2022-09-24T02:54:30;10.20;99.90
30328;DHT22;17133;52.418;13.398;2022-09-24T02:56:56;10.30;99.90
30328;DHT22;17133;52.418;13.398;2022-09-24T02:59:22;10.30;99.90
30328;DHT22;17133;52.418;13.398;2022-09-24T03:01:48;10.30;99.90
30328;DHT22;17133;52.418;13.398;2022-09-24T03:04:15;10.30;99.90
30328;DHT22;17133;52.418;13.398;2022-09-24T03:06:41;10.30;99.90
30328;DHT22;17133;52.418;13.398;2022-09-24T03:09:06;10.30;99.90
30328;DHT22;17133;52.418;13.398;2022-09-24T03:11:32;10.30;99.90
30328;DHT22;17133;52.418;13.398;2022-09-24T03:13:59;10.30;99.90
30328;DHT22;17133;52.418;13.398;2022-09-24T03:16:25;10.30;99.90
30328;DHT22;17133;52.418;13.398;2022-09-24T03:18:51;10.40;99.90
30328;DHT22;17133;52.418;13.398;2022-09-24T03:21:19;8.40;99.90
30328;DHT22;17133;52.418;13.398;2022-09-24T03:23:45;10.30;99.90
30328;DHT22;17133;52.418;13.398;2022-09-24T03:26:11;10.40;99.90
30328;DHT22;17133;52.418;13.398;2022-09-24T03:28:36;10.30;99.90
30328;DHT22;17133;52.418;13.398;2022-09-24T03:31:02;10.30;99.90
30328;DHT22;17133;52.418;13.398;2022-09-24T03:36:05;10.30;99.90
30328;DHT22;17133;52.418;13.398;2022-09-24T03:38:32;10.30;99.90
30328;DHT22;17133;52.418;13.398;2022-09-24T03:40:58;10.30;99.90
30328;DHT22;17133;52.418;13.398;2022-09-24T03:43:25;10.30;99.90
30328;DHT22;17133;52.418;13.398;2022-09-24T03:45:51;10.30;99.90
30328;DHT22;17133;52.418;13.398;2022-09-24T03:48:18;10.30;99.90
30328;DHT22;17133;52.418;13.398;2022-09-24T03:50:44;10.30;99.90
30328;DHT22;17133;52.418;13.398;2022-09-24T03:53:11;10.30;99.90
30328;DHT22;17133;52.418;13.398;2022-09-24T03:55:41;10.30;99.90
30328;DHT22;17133;52.418;13.398;2022-09-24T03:58:08;10.30;99.90
30328;DHT22;17133;52.418;13.398;2022-09-24T04:00:33;10.20;99.90
30328;DHT22;17133;52.418;13.398;2022-09-24T04:02:59;10.30;99.90
30328;DHT22;17133;52.418;13.398;2022-09-24T04:05:24;13.80;99.90
30328;DHT22;17133;52.418;13.398;2022-09-24T04:07:50;10.20;99.90
30328;DHT22;17133;52.418;13.398;2022-09-24T04:10:15;13.50;99.90
30328;DHT22;17133;52.418;13.398;2022-09-24T04:12:41;10.30;99.90
30328;DHT22;17133;52.418;13.398;2022-09-24T04:15:10;10.30;99.90
30328;DHT22;17133;52.418;13.398;2022-09-24T04:17:35;10.30;99.90
30328;DHT22;17133;52.418;13.398;2022-09-24T04:20:01;10.30;99.90
30328;DHT22;17133;52.418;13.398;2022-09-24T04:22:27;10.30;99.90
30328;DHT22;17133;52.418;13.398;2022-09-24T04:24:55;10.30;99.90
30328;DHT22;17133;52.418;13.398;2022-09-24T04:27:21;10.20;99.90
30328;DHT22;17133;52.418;13.398;2022-09-24T04:29:46;10.00;99.90
30328;DHT22;17133;52.418;13.398;2022-09-24T04:32:12;10.20;99.90
30328;DHT22;17133;52.418;13.398;2022-09-24T04:34:38;10.20;99.90
30328;DHT22;17133;52.418;13.398;2022-09-24T04:37:03;10.20;99.90
30328;DHT22;17133;52.418;13.398;2022-09-24T04:39:30;10.00;99.90
30328;DHT22;17133;52.418;13.398;2022-09-24T04:41:55;10.20;99.90
30328;DHT22;17133;52.418;13.398;2022-09-24T04:44:21;8.40;99.90
30328;DHT22;17133;52.418;13.398;2022-09-24T04:46:48;10.20;99.90
30328;DHT22;17133;52.418;13.398;2022-09-24T04:49:14;10.20;99.90
30328;DHT22;17133;52.418;13.398;2022-09-24T04:51:40;10.20;99.90
30328;DHT22;17133;52.418;13.398;2022-09-24T04:54:08;10.20;99.90
30328;DHT22;17133;52.418;13.398;2022-09-24T04:56:33;10.20;99.90
30328;DHT22;17133;52.418;13.398;2022-09-24T04:58:59;10.20;99.90
30328;DHT22;17133;52.418;13.398;2022-09-24T05:01:25;10.20;99.90
30328;DHT22;17133;52.418;13.398;2022-09-24T05:03:50;10.20;99.90
30328;DHT22;17133;52.418;13.398;2022-09-24T05:06:17;10.20;99.90
30328;DHT22;17133;52.418;13.398;2022-09-24T05:08:43;10.20;99.90
30328;DHT22;17133;52.418;13.398;2022-09-24T05:11:08;10.20;99.90
30328;DHT22;17133;52.418;13.398;2022-09-24T05:13:34;10.20;99.90
30328;DHT22;17133;52.418;13.398;2022-09-24T05:16:01;9.80;99.90
30328;DHT22;17133;52.418;13.398;2022-09-24T05:18:27;10.20;99.90
30328;DHT22;17133;52.418;13.398;2022-09-24T05:20:53;10.20;99.90
30328;DHT22;17133;52.418;13.398;2022-09-24T05:23:18;10.20;99.90
30328;DHT22;17133;52.418;13.398;2022-09-24T05:25:44;10.20;99.90
30328;DHT22;17133;52.418;13.398;2022-09-24T05:28:28;9.80;99.90
30328;DHT22;17133;52.418;13.398;2022-09-24T05:30:58;10.30;99.90
30328;DHT22;17133;52.418;13.398;2022-09-24T05:33:24;10.30;99.90
30328;DHT22;17133;52.418;13.398;2022-09-24T05:35:56;10.30;99.90
30328;DHT22;17133;52.418;13.398;2022-09-24T05:38:22;10.30;99.90
30328;DHT22;17133;52.418;13.398;2022-09-24T05:40:48;10.40;99.90
30328;DHT22;17133;52.418;13.398;2022-09-24T05:43:15;10.30;99.90
30328;DHT22;17133;52.418;13.398;2022-09-24T05:45:43;10.40;99.90
30328;DHT22;17133;52.418;13.398;2022-09-24T05:48:09;10.30;99.90
30328;DHT22;17133;52.418;13.398;2022-09-24T05:50:34;10.40;99.90
30328;DHT22;17133;52.418;13.398;2022-09-24T05:53:00;10.50;99.90
30328;DHT22;17133;52.418;13.398;2022-09-24T05:55:26;10.50;99.90
30328;DHT22;17133;52.418;13.398;2022-09-24T05:57:52;10.20;99.90
30328;DHT22;17133;52.418;13.398;2022-09-24T06:00:18;10.60;99.90
30328;DHT22;17133;52.418;13.398;2022-09-24T06:02:44;10.60;99.90
30328;DHT22;17133;52.418;13.398;2022-09-24T06:05:10;10.50;99.90
30328;DHT22;17133;52.418;13.398;2022-09-24T06:07:36;10.60;99.90
30328;DHT22;17133;52.418;13.398;2022-09-24T06:10:02;10.70;99.90
30328;DHT22;17133;52.418;13.398;2022-09-24T06:12:27;10.70;99.90
30328;DHT22;17133;52.418;13.398;2022-09-24T06:14:53;10.80;99.90
30328;DHT22;17133;52.418;13.398;2022-09-24T06:17:22;10.00;99.90
30328;DHT22;17133;52.418;13.398;2022-09-24T06:19:48;10.90;99.90
30328;DHT22;17133;52.418;13.398;2022-09-24T06:22:13;10.90;99.90
30328;DHT22;17133;52.418;13.398;2022-09-24T06:24:39;10.90;99.90
30328;DHT22;17133;52.418;13.398;2022-09-24T06:27:05;10.90;99.90
30328;DHT22;17133;52.418;13.398;2022-09-24T06:29:31;10.70;99.90
30328;DHT22;17133;52.418;13.398;2022-09-24T06:31:57;11.00;99.90
30328;DHT22;17133;52.418;13.398;2022-09-24T06:34:24;10.90;99.90
30328;DHT22;17133;52.418;13.398;2022-09-24T06:36:53;10.90;99.90
30328;DHT22;17133;52.418;13.398;2022-09-24T06:39:19;11.00;99.90
30328;DHT22;17133;52.418;13.398;2022-09-24T06:41:45;11.00;99.90
30328;DHT22;17133;52.418;13.398;2022-09-24T06:44:11;11.00;99.90
30328;DHT22;17133;52.418;13.398;2022-09-24T06:46:36;11.10;99.90
30328;DHT22;17133;52.418;13.398;2022-09-24T06:49:02;11.10;99.90
30328;DHT22;17133;52.418;13.398;2022-09-24T06:51:27;11.20;99.90
30328;DHT22;17133;52.418;13.398;2022-09-24T06:53:53;11.40;99.90
30328;DHT22;17133;52.418;13.398;2022-09-24T06:56:18;11.50;99.90
30328;DHT22;17133;52.418;13.398;2022-09-24T06:58:44;11.50;99.90
30328;DHT22;17133;52.418;13.398;2022-09-24T07:03:36;11.70;99.90
30328;DHT22;17133;52.418;13.398;2022-09-24T07:06:04;11.60;99.90
30328;DHT22;17133;52.418;13.398;2022-09-24T11:56:53;18.00;99.90
30328;DHT22;17133;52.418;13.398;2022-09-24T12:02:17;18.10;99.90
30328;DHT22;17133;52.418;13.398;2022-09-24T12:05:01;18.10;99.90
30328;DHT22;17133;52.418;13.398;2022-09-24T12:07:44;18.10;99.90
30328;DHT22;17133;52.418;13.398;2022-09-24T12:13:21;18.10;99.90
30328;DHT22;17133;52.418;13.398;2022-09-24T12:15:52;18.20;99.90
30328;DHT22;17133;52.418;13.398;2022-09-24T12:20:56;18.20;99.90
30328;DHT22;17133;52.418;13.398;2022-09-24T12:23:26;18.30;99.90
30328;DHT22;17133;52.418;13.398;2022-09-24T12:25:54;18.20;99.90
30328;DHT22;17133;52.418;13.398;2022-09-24T12:28:22;18.30;99.90
30328;DHT22;17133;52.418;13.398;2022-09-24T12:31:32;18.30;99.90
30328;DHT22;17133;52.418;13.398;2022-09-24T12:34:28;18.20;99.90
30328;DHT22;17133;52.418;13.398;2022-09-24T12:42:07;18.10;99.90
30328;DHT22;17133;52.418;13.398;2022-09-24T12:44:50;18.00;99.90
30328;DHT22;17133;52.418;13.398;2022-09-24T12:49:57;18.00;99.90
30328;DHT22;17133;52.418;13.398;2022-09-24T12:52:57;18.00;99.90
30328;DHT22;17133;52.418;13.398;2022-09-24T12:55:29;17.90;99.90
30328;DHT22;17133;52.418;13.398;2022-09-24T13:00:43;17.90;99.90
30328;DHT22;17133;52.418;13.398;2022-09-24T13:05:58;18.00;99.90
30328;DHT22;17133;52.418;13.398;2022-09-24T13:11:03;18.20;99.90
30328;DHT22;17133;52.418;13.398;2022-09-24T13:18:31;18.10;99.90
30328;DHT22;17133;52.418;13.398;2022-09-24T13:21:06;18.20;99.90
30328;DHT22;17133;52.418;13.398;2022-09-24T13:23:42;18.10;99.90
30328;DHT22;17133;52.418;13.398;2022-09-24T13:33:56;18.10;99.90
30328;DHT22;17133;52.418;13.398;2022-09-24T13:39:11;18.20;99.90
30328;DHT22;17133;52.418;13.398;2022-09-24T13:42:06;18.10;99.90
30328;DHT22;17133;52.418;13.398;2022-09-24T13:44:36;18.10;99.90
30328;DHT22;17133;52.418;13.398;2022-09-24T13:47:26;18.10;99.90
30328;DHT22;17133;52.418;13.398;2022-09-24T13:50:43;18.10;99.90
30328;DHT22;17133;52.418;13.398;2022-09-24T13:52:51;18.10;99.90
30328;DHT22;17133;52.418;13.398;2022-09-24T13:57:47;18.20;99.90
30328;DHT22;17133;52.418;13.398;2022-09-24T14:02:43;18.30;99.90
30328;DHT22;17133;52.418;13.398;2022-09-24T14:05:17;18.20;99.90
30328;DHT22;17133;52.418;13.398;2022-09-24T14:08:13;18.20;99.90
30328;DHT22;17133;52.418;13.398;2022-09-24T14:10:40;18.20;99.90
30328;DHT22;17133;52.418;13.398;2022-09-24T14:13:21;18.10;99.90
30328;DHT22;17133;52.418;13.398;2022-09-24T14:15:51;18.00;99.90
30328;DHT22;17133;52.418;13.398;2022-09-24T14:18:17;18.20;99.90
30328;DHT22;17133;52.418;13.398;2022-09-24T14:23:18;18.10;99.90
30328;DHT22;17133;52.418;13.398;2022-09-24T14:28:11;18.00;99.90
30328;DHT22;17133;52.418;13.398;2022-09-24T14:30:55;18.10;99.90
30328;DHT22;17133;52.418;13.398;2022-09-24T14:33:29;17.90;99.90
30328;DHT22;17133;52.418;13.398;2022-09-24T14:38:33;17.90;99.90
30328;DHT22;17133;52.418;13.398;2022-09-24T14:41:17;17.80;99.90
30328;DHT22;17133;52.418;13.398;2022-09-24T14:43:52;17.80;99.90
30328;DHT22;17133;52.418;13.398;2022-09-24T14:46:45;17.80;99.90
30328;DHT22;17133;52.418;13.398;2022-09-24T14:49:29;17.70;99.90
30328;DHT22;17133;52.418;13.398;2022-09-24T14:51:57;17.70;99.90
30328;DHT22;17133;52.418;13.398;2022-09-24T14:56:53;17.70;99.90
30328;DHT22;17133;52.418;13.398;2022-09-24T14:59:30;17.60;99.90
30328;DHT22;17133;52.418;13.398;2022-09-24T15:09:54;17.40;99.90
30328;DHT22;17133;52.418;13.398;2022-09-24T15:12:41;17.20;99.90
30328;DHT22;17133;52.418;13.398;2022-09-24T15:17:43;17.30;99.90
30328;DHT22;17133;52.418;13.398;2022-09-24T15:25:02;17.30;99.90
30328;DHT22;17133;52.418;13.398;2022-09-24T15:27:29;17.20;99.90
30328;DHT22;17133;52.418;13.398;2022-09-24T15:29:56;17.10;99.90
30328;DHT22;17133;52.418;13.398;2022-09-24T15:34:51;16.90;99.90
30328;DHT22;17133;52.418;13.398;2022-09-24T15:37:20;16.90;99.90
30328;DHT22;17133;52.418;13.398;2022-09-24T15:39:47;16.90;99.90
30328;DHT22;17133;52.418;13.398;2022-09-24T15:42:18;16.90;99.90
30328;DHT22;17133;52.418;13.398;2022-09-24T15:44:44;16.80;99.90
30328;DHT22;17133;52.418;13.398;2022-09-24T15:52:24;16.80;99.90
30328;DHT22;17133;52.418;13.398;2022-09-24T15:54:55;16.70;99.90
30328;DHT22;17133;52.418;13.398;2022-09-24T15:57:21;16.60;99.90
30328;DHT22;17133;52.418;13.398;2022-09-24T15:59:48;16.70;99.90
30328;DHT22;17133;52.418;13.398;2022-09-24T16:02:29;16.60;99.90
30328;DHT22;17133;52.418;13.398;2022-09-24T16:04:58;16.60;99.90
30328;DHT22;17133;52.418;13.398;2022-09-24T16:07:24;16.60;99.90
30328;DHT22;17133;52.418;13.398;2022-09-24T16:12:18;16.60;99.90
30328;DHT22;17133;52.418;13.398;2022-09-24T16:19:37;16.50;99.90
30328;DHT22;17133;52.418;13.398;2022-09-24T16:24:32;16.40;99.90
30328;DHT22;17133;52.418;13.398;2022-09-24T16:34:16;16.10;99.90
30328;DHT22;17133;52.418;13.398;2022-09-24T16:36:42;16.20;99.90
30328;DHT22;17133;52.418;13.398;2022-09-24T16:39:08;16.20;99.90
30328;DHT22;17133;52.418;13.398;2022-09-24T16:41:33;16.20;99.90
30328;DHT22;17133;52.418;13.398;2022-09-24T16:44:01;16.10;99.90
30328;DHT22;17133;52.418;13.398;2022-09-24T16:48:53;16.00;99.90
30328;DHT22;17133;52.418;13.398;2022-09-24T16:53:45;15.90;99.90
30328;DHT22;17133;52.418;13.398;2022-09-24T16:56:13;15.80;99.90
30328;DHT22;17133;52.418;13.398;2022-09-24T17:01:14;15.70;99.90
30328;DHT22;17133;52.418;13.398;2022-09-24T17:03:40;15.70;99.90
30328;DHT22;17133;52.418;13.398;2022-09-24T17:06:06;15.70;99.90
30328;DHT22;17133;52.418;13.398;2022-09-24T17:08:34;15.60;99.90
30328;DHT22;17133;52.418;13.398;2022-09-24T17:11:19;15.50;99.90
30328;DHT22;17133;52.418;13.398;2022-09-24T17:13:45;15.40;99.90
30328;DHT22;17133;52.418;13.398;2022-09-24T17:16:14;15.50;99.90
30328;DHT22;17133;52.418;13.398;2022-09-24T17:18:40;15.40;99.90
30328;DHT22;17133;52.418;13.398;2022-09-24T17:21:08;15.40;99.90
30328;DHT22;17133;52.418;13.398;2022-09-24T17:26:06;15.40;99.90
30328;DHT22;17133;52.418;13.398;2022-09-24T17:28:33;15.20;99.90
30328;DHT22;17133;52.418;13.398;2022-09-24T17:33:28;15.30;99.90
30328;DHT22;17133;52.418;13.398;2022-09-24T17:35:55;15.30;99.90
30328;DHT22;17133;52.418;13.398;2022-09-24T17:38:21;15.30;99.90
30328;DHT22;17133;52.418;13.398;2022-09-24T17:40:55;15.20;99.90
30328;DHT22;17133;52.418;13.398;2022-09-24T17:43:22;15.10;99.90
30328;DHT22;17133;52.418;13.398;2022-09-24T17:45:57;15.00;99.90
30328;DHT22;17133;52.418;13.398;2022-09-24T17:50:58;15.20;99.90
30328;DHT22;17133;52.418;13.398;2022-09-24T17:53:25;15.00;99.90
30328;DHT22;17133;52.418;13.398;2022-09-24T17:58:20;15.20;99.90
30328;DHT22;17133;52.418;13.398;2022-09-24T18:00:46;15.10;99.90
30328;DHT22;17133;52.418;13.398;2022-09-24T18:03:13;15.10;99.90
30328;DHT22;17133;52.418;13.398;2022-09-24T18:08:05;15.10;99.90
30328;DHT22;17133;52.418;13.398;2022-09-24T18:10:31;15.10;99.90
30328;DHT22;17133;52.418;13.398;2022-09-24T18:12:57;15.00;99.90
30328;DHT22;17133;52.418;13.398;2022-09-24T18:15:24;15.00;99.90
30328;DHT22;17133;52.418;13.398;2022-09-24T18:17:50;15.00;99.90
30328;DHT22;17133;52.418;13.398;2022-09-24T18:22:43;15.00;99.90
30328;DHT22;17133;52.418;13.398;2022-09-24T18:25:09;15.00;99.90
30328;DHT22;17133;52.418;13.398;2022-09-24T18:27:35;14.90;99.90
30328;DHT22;17133;52.418;13.398;2022-09-24T18:30:03;14.90;99.90
30328;DHT22;17133;52.418;13.398;2022-09-24T18:32:30;14.90;99.90
30328;DHT22;17133;52.418;13.398;2022-09-24T18:34:56;14.90;99.90
30328;DHT22;17133;52.418;13.398;2022-09-24T18:37:22;14.90;99.90
30328;DHT22;17133;52.418;13.398;2022-09-24T18:39:48;14.90;99.90
30328;DHT22;17133;52.418;13.398;2022-09-24T18:44:40;14.80;99.90
30328;DHT22;17133;52.418;13.398;2022-09-24T18:47:05;14.80;99.90
30328;DHT22;17133;52.418;13.398;2022-09-24T18:49:31;14.80;99.90
30328;DHT22;17133;52.418;13.398;2022-09-24T18:51:57;14.80;99.90
30328;DHT22;17133;52.418;13.398;2022-09-24T18:54:22;14.70;99.90
30328;DHT22;17133;52.418;13.398;2022-09-24T18:59:17;14.70;99.90
30328;DHT22;17133;52.418;13.398;2022-09-24T19:01:43;14.70;99.90
30328;DHT22;17133;52.418;13.398;2022-09-24T19:04:11;14.70;99.90
30328;DHT22;17133;52.418;13.398;2022-09-24T19:06:38;14.80;99.90
30328;DHT22;17133;52.418;13.398;2022-09-24T19:09:05;14.80;99.90
30328;DHT22;17133;52.418;13.398;2022-09-24T19:13:59;14.70;99.90
30328;DHT22;17133;52.418;13.398;2022-09-24T19:18:53;14.70;99.90
30328;DHT22;17133;52.418;13.398;2022-09-24T19:21:20;14.70;99.90
30328;DHT22;17133;52.418;13.398;2022-09-24T19:23:49;14.60;99.90
30328;DHT22;17133;52.418;13.398;2022-09-24T19:26:27;14.70;99.90
30328;DHT22;17133;52.418;13.398;2022-09-24T19:28:53;14.60;99.90
